sensor_id;sensor_type;location;lat;lon;timestamp;temperature;humidity
37050;DHT22;22958;51.232;6.826;2023-02-03T00:00:43;9.40;99.90
37050;DHT22;22958;51.232;6.826;2023-02-03T00:03:09;9.40;99.90
37050;DHT22;22958;51.232;6.826;2023-02-03T00:05:35;9.40;99.90
37050;DHT22;22958;51.232;6.826;2023-02-03T00:08:02;9.40;99.90
37050;DHT22;22958;51.232;6.826;2023-02-03T00:10:28;9.40;99.90
37050;DHT22;22958;51.232;6.826;2023-02-03T00:12:53;9.40;99.90
37050;DHT22;22958;51.232;6.826;2023-02-03T00:15:19;9.30;99.90
37050;DHT22;22958;51.232;6.826;2023-02-03T00:17:44;9.30;99.90
37050;DHT22;22958;51.232;6.826;2023-02-03T00:20:10;9.30;99.90
37050;DHT22;22958;51.232;6.826;2023-02-03T00:22:36;9.40;99.90
37050;DHT22;22958;51.232;6.826;2023-02-03T00:25:02;9.40;99.90
37050;DHT22;22958;51.232;6.826;2023-02-03T00:27:28;9.40;99.90
37050;DHT22;22958;51.232;6.826;2023-02-03T00:29:53;9.40;99.90
37050;DHT22;22958;51.232;6.826;2023-02-03T00:32:19;9.40;99.90
37050;DHT22;22958;51.232;6.826;2023-02-03T00:34:44;9.40;99.90
37050;DHT22;22958;51.232;6.826;2023-02-03T00:37:12;9.40;99.90
37050;DHT22;22958;51.232;6.826;2023-02-03T00:39:37;9.40;99.90
37050;DHT22;22958;51.232;6.826;2023-02-03T00:42:04;9.40;99.90
37050;DHT22;22958;51.232;6.826;2023-02-03T00:44:29;9.40;99.90
37050;DHT22;22958;51.232;6.826;2023-02-03T00:46:55;9.40;99.90
37050;DHT22;22958;51.232;6.826;2023-02-03T00:49:21;9.30;99.90
37050;DHT22;22958;51.232;6.826;2023-02-03T00:51:46;9.30;99.90
37050;DHT22;22958;51.232;6.826;2023-02-03T00:54:12;9.30;99.90
37050;DHT22;22958;51.232;6.826;2023-02-03T00:56:38;9.30;99.90
37050;DHT22;22958;51.232;6.826;2023-02-03T00:59:04;9.30;99.90
37050;DHT22;22958;51.232;6.826;2023-02-03T01:01:29;9.30;99.90
37050;DHT22;22958;51.232;6.826;2023-02-03T01:03:55;9.30;99.90
37050;DHT22;22958;51.232;6.826;2023-02-03T01:06:21;9.30;99.90
37050;DHT22;22958;51.232;6.826;2023-02-03T01:08:47;9.40;99.90
37050;DHT22;22958;51.232;6.826;2023-02-03T01:11:19;9.40;99.90
37050;DHT22;22958;51.232;6.826;2023-02-03T01:13:45;9.30;99.90
37050;DHT22;22958;51.232;6.826;2023-02-03T01:16:13;9.40;99.90
37050;DHT22;22958;51.232;6.826;2023-02-03T01:18:39;9.40;99.90
37050;DHT22;22958;51.232;6.826;2023-02-03T01:21:10;9.40;99.90
37050;DHT22;22958;51.232;6.826;2023-02-03T01:23:36;9.30;99.90
37050;DHT22;22958;51.232;6.826;2023-02-03T01:26:04;9.40;99.90
37050;DHT22;22958;51.232;6.826;2023-02-03T01:28:30;9.40;99.90
37050;DHT22;22958;51.232;6.826;2023-02-03T01:30:56;9.50;99.90
37050;DHT22;22958;51.232;6.826;2023-02-03T01:33:21;9.40;99.90
37050;DHT22;22958;51.232;6.826;2023-02-03T01:35:47;9.40;99.90
37050;DHT22;22958;51.232;6.826;2023-02-03T01:38:12;9.50;99.90
37050;DHT22;22958;51.232;6.826;2023-02-03T01:40:42;9.40;99.90
37050;DHT22;22958;51.232;6.826;2023-02-03T01:43:09;9.40;99.90
37050;DHT22;22958;51.232;6.826;2023-02-03T01:45:35;9.50;99.90
37050;DHT22;22958;51.232;6.826;2023-02-03T01:48:02;9.50;99.90
37050;DHT22;22958;51.232;6.826;2023-02-03T01:50:33;9.50;99.90
37050;DHT22;22958;51.232;6.826;2023-02-03T01:53:03;9.50;99.90
37050;DHT22;22958;51.232;6.826;2023-02-03T01:55:33;9.40;99.90
37050;DHT22;22958;51.232;6.826;2023-02-03T01:58:21;9.40;99.90
37050;DHT22;22958;51.232;6.826;2023-02-03T02:00:48;9.40;99.90
37050;DHT22;22958;51.232;6.826;2023-02-03T02:03:14;9.40;99.90
37050;DHT22;22958;51.232;6.826;2023-02-03T02:05:53;9.50;99.90
37050;DHT22;22958;51.232;6.826;2023-02-03T02:08:21;9.50;99.90
37050;DHT22;22958;51.232;6.826;2023-02-03T02:10:48;9.50;99.90
37050;DHT22;22958;51.232;6.826;2023-02-03T02:13:15;9.50;99.90
37050;DHT22;22958;51.232;6.826;2023-02-03T02:18:24;9.50;99.90
37050;DHT22;22958;51.232;6.826;2023-02-03T02:21:07;9.50;99.90
37050;DHT22;22958;51.232;6.826;2023-02-03T02:23:50;9.50;99.90
37050;DHT22;22958;51.232;6.826;2023-02-03T02:26:35;9.50;99.90
37050;DHT22;22958;51.232;6.826;2023-02-03T02:39:43;9.50;99.90
37050;DHT22;22958;51.232;6.826;2023-02-03T02:42:18;9.40;99.90
37050;DHT22;22958;51.232;6.826;2023-02-03T02:44:52;9.40;99.90
37050;DHT22;22958;51.232;6.826;2023-02-03T02:47:21;9.40;99.90
37050;DHT22;22958;51.232;6.826;2023-02-03T02:50:04;9.50;99.90
37050;DHT22;22958;51.232;6.826;2023-02-03T02:52:33;9.50;99.90
37050;DHT22;22958;51.232;6.826;2023-02-03T02:55:07;9.50;99.90
37050;DHT22;22958;51.232;6.826;2023-02-03T02:57:34;9.50;99.90
37050;DHT22;22958;51.232;6.826;2023-02-03T03:00:00;9.50;99.90
37050;DHT22;22958;51.232;6.826;2023-02-03T03:02:32;9.50;99.90
37050;DHT22;22958;51.232;6.826;2023-02-03T03:04:58;9.50;99.90
37050;DHT22;22958;51.232;6.826;2023-02-03T03:07:26;9.50;99.90
37050;DHT22;22958;51.232;6.826;2023-02-03T03:09:56;9.50;99.90
37050;DHT22;22958;51.232;6.826;2023-02-03T03:12:31;9.50;99.90
37050;DHT22;22958;51.232;6.826;2023-02-03T03:15:05;9.60;99.90
37050;DHT22;22958;51.232;6.826;2023-02-03T03:17:40;9.50;99.90
37050;DHT22;22958;51.232;6.826;2023-02-03T03:20:10;9.50;99.90
37050;DHT22;22958;51.232;6.826;2023-02-03T03:22:43;9.50;99.90
37050;DHT22;22958;51.232;6.826;2023-02-03T03:25:15;9.50;99.90
37050;DHT22;22958;51.232;6.826;2023-02-03T03:27:47;9.50;99.90
37050;DHT22;22958;51.232;6.826;2023-02-03T03:30:17;9.50;99.90
37050;DHT22;22958;51.232;6.826;2023-02-03T03:32:45;9.40;99.90
37050;DHT22;22958;51.232;6.826;2023-02-03T03:35:11;9.40;99.90
37050;DHT22;22958;51.232;6.826;2023-02-03T03:37:45;9.50;99.90
37050;DHT22;22958;51.232;6.826;2023-02-03T03:40:19;9.50;99.90
37050;DHT22;22958;51.232;6.826;2023-02-03T03:43:01;9.50;99.90
37050;DHT22;22958;51.232;6.826;2023-02-03T03:45:32;9.50;99.90
37050;DHT22;22958;51.232;6.826;2023-02-03T03:48:08;9.50;99.90
37050;DHT22;22958;51.232;6.826;2023-02-03T03:50:40;9.50;99.90
37050;DHT22;22958;51.232;6.826;2023-02-03T03:53:09;9.50;99.90
37050;DHT22;22958;51.232;6.826;2023-02-03T03:55:37;9.40;99.90
37050;DHT22;22958;51.232;6.826;2023-02-03T03:58:14;9.40;99.90
37050;DHT22;22958;51.232;6.826;2023-02-03T04:00:43;9.50;99.90
37050;DHT22;22958;51.232;6.826;2023-02-03T04:03:14;9.50;99.90
37050;DHT22;22958;51.232;6.826;2023-02-03T04:05:40;9.50;99.90
37050;DHT22;22958;51.232;6.826;2023-02-03T04:08:05;9.50;99.90
37050;DHT22;22958;51.232;6.826;2023-02-03T04:10:37;9.50;99.90
37050;DHT22;22958;51.232;6.826;2023-02-03T04:13:04;9.60;99.90
37050;DHT22;22958;51.232;6.826;2023-02-03T04:15:30;9.50;99.90
37050;DHT22;22958;51.232;6.826;2023-02-03T04:17:55;9.60;99.90
37050;DHT22;22958;51.232;6.826;2023-02-03T04:20:22;9.60;99.90
37050;DHT22;22958;51.232;6.826;2023-02-03T04:22:48;9.60;99.90
37050;DHT22;22958;51.232;6.826;2023-02-03T04:25:13;9.60;99.90
37050;DHT22;22958;51.232;6.826;2023-02-03T04:27:39;9.50;99.90
37050;DHT22;22958;51.232;6.826;2023-02-03T04:30:05;9.50;99.90
37050;DHT22;22958;51.232;6.826;2023-02-03T04:32:31;9.50;99.90
37050;DHT22;22958;51.232;6.826;2023-02-03T04:34:57;9.50;99.90
37050;DHT22;22958;51.232;6.826;2023-02-03T04:37:23;9.50;99.90
37050;DHT22;22958;51.232;6.826;2023-02-03T04:39:51;9.50;99.90
37050;DHT22;22958;51.232;6.826;2023-02-03T04:42:17;9.50;99.90
37050;DHT22;22958;51.232;6.826;2023-02-03T04:44:43;9.50;99.90
37050;DHT22;22958;51.232;6.826;2023-02-03T04:47:08;9.50;99.90
37050;DHT22;22958;51.232;6.826;2023-02-03T04:49:34;9.50;99.90
37050;DHT22;22958;51.232;6.826;2023-02-03T04:52:00;9.50;99.90
37050;DHT22;22958;51.232;6.826;2023-02-03T04:54:25;9.50;99.90
37050;DHT22;22958;51.232;6.826;2023-02-03T04:56:50;9.50;99.90
37050;DHT22;22958;51.232;6.826;2023-02-03T04:59:16;9.50;99.90
37050;DHT22;22958;51.232;6.826;2023-02-03T05:01:42;9.50;99.90
37050;DHT22;22958;51.232;6.826;2023-02-03T05:04:07;9.50;99.90
37050;DHT22;22958;51.232;6.826;2023-02-03T05:06:33;9.50;99.90
37050;DHT22;22958;51.232;6.826;2023-02-03T05:08:58;9.50;99.90
37050;DHT22;22958;51.232;6.826;2023-02-03T05:11:24;9.50;99.90
37050;DHT22;22958;51.232;6.826;2023-02-03T05:13:50;9.50;99.90
37050;DHT22;22958;51.232;6.826;2023-02-03T05:16:16;9.50;99.90
37050;DHT22;22958;51.232;6.826;2023-02-03T05:18:41;9.50;99.90
37050;DHT22;22958;51.232;6.826;2023-02-03T05:21:07;9.50;99.90
37050;DHT22;22958;51.232;6.826;2023-02-03T05:23:33;9.50;99.90
37050;DHT22;22958;51.232;6.826;2023-02-03T05:25:58;9.40;99.90
37050;DHT22;22958;51.232;6.826;2023-02-03T05:28:24;9.50;99.90
37050;DHT22;22958;51.232;6.826;2023-02-03T05:30:49;9.50;99.90
37050;DHT22;22958;51.232;6.826;2023-02-03T05:33:15;9.50;99.90
37050;DHT22;22958;51.232;6.826;2023-02-03T05:35:41;9.50;99.90
37050;DHT22;22958;51.232;6.826;2023-02-03T05:38:07;9.50;99.90
37050;DHT22;22958;51.232;6.826;2023-02-03T05:40:32;9.50;99.90
37050;DHT22;22958;51.232;6.826;2023-02-03T05:43:16;9.50;99.90
37050;DHT22;22958;51.232;6.826;2023-02-03T05:45:42;9.50;99.90
37050;DHT22;22958;51.232;6.826;2023-02-03T05:48:08;9.40;99.90
37050;DHT22;22958;51.232;6.826;2023-02-03T05:50:34;9.50;99.90
37050;DHT22;22958;51.232;6.826;2023-02-03T05:53:01;9.60;99.90
37050;DHT22;22958;51.232;6.826;2023-02-03T05:55:27;9.60;99.90
37050;DHT22;22958;51.232;6.826;2023-02-03T05:57:53;9.60;99.90
37050;DHT22;22958;51.232;6.826;2023-02-03T06:00:19;9.60;99.90
37050;DHT22;22958;51.232;6.826;2023-02-03T06:02:58;9.60;99.90
37050;DHT22;22958;51.232;6.826;2023-02-03T06:05:25;9.60;99.90
37050;DHT22;22958;51.232;6.826;2023-02-03T06:07:51;9.60;99.90
37050;DHT22;22958;51.232;6.826;2023-02-03T06:10:17;9.70;99.90
37050;DHT22;22958;51.232;6.826;2023-02-03T06:12:43;9.60;99.90
37050;DHT22;22958;51.232;6.826;2023-02-03T06:15:09;9.60;99.90
37050;DHT22;22958;51.232;6.826;2023-02-03T06:17:35;9.60;99.90
37050;DHT22;22958;51.232;6.826;2023-02-03T06:20:04;9.60;99.90
37050;DHT22;22958;51.232;6.826;2023-02-03T06:22:30;9.60;99.90
37050;DHT22;22958;51.232;6.826;2023-02-03T06:24:56;9.60;99.90
37050;DHT22;22958;51.232;6.826;2023-02-03T06:27:21;9.60;99.90
37050;DHT22;22958;51.232;6.826;2023-02-03T06:29:47;9.60;99.90
37050;DHT22;22958;51.232;6.826;2023-02-03T06:32:13;9.60;99.90
37050;DHT22;22958;51.232;6.826;2023-02-03T06:34:38;9.60;99.90
37050;DHT22;22958;51.232;6.826;2023-02-03T06:37:04;9.60;99.90
37050;DHT22;22958;51.232;6.826;2023-02-03T06:39:29;9.70;99.90
37050;DHT22;22958;51.232;6.826;2023-02-03T06:41:55;9.70;99.90
37050;DHT22;22958;51.232;6.826;2023-02-03T06:44:21;9.70;99.90
37050;DHT22;22958;51.232;6.826;2023-02-03T06:46:47;9.70;99.90
37050;DHT22;22958;51.232;6.826;2023-02-03T06:49:12;9.70;99.90
37050;DHT22;22958;51.232;6.826;2023-02-03T06:51:38;9.60;99.90
37050;DHT22;22958;51.232;6.826;2023-02-03T06:54:03;9.70;99.90
37050;DHT22;22958;51.232;6.826;2023-02-03T06:56:29;9.70;99.90
37050;DHT22;22958;51.232;6.826;2023-02-03T06:58:55;9.70;99.90
37050;DHT22;22958;51.232;6.826;2023-02-03T07:01:22;9.70;99.90
37050;DHT22;22958;51.232;6.826;2023-02-03T07:03:47;9.80;99.90
37050;DHT22;22958;51.232;6.826;2023-02-03T07:06:13;9.80;99.90
37050;DHT22;22958;51.232;6.826;2023-02-03T07:08:39;9.70;99.90
37050;DHT22;22958;51.232;6.826;2023-02-03T07:11:05;9.80;99.90
37050;DHT22;22958;51.232;6.826;2023-02-03T07:13:31;9.80;99.90
37050;DHT22;22958;51.232;6.826;2023-02-03T07:15:56;9.80;99.90
37050;DHT22;22958;51.232;6.826;2023-02-03T07:18:22;9.80;99.90
37050;DHT22;22958;51.232;6.826;2023-02-03T07:20:49;9.80;99.90
37050;DHT22;22958;51.232;6.826;2023-02-03T07:23:15;9.80;99.90
37050;DHT22;22958;51.232;6.826;2023-02-03T07:25:41;9.90;99.90
37050;DHT22;22958;51.232;6.826;2023-02-03T07:28:07;9.80;99.90
37050;DHT22;22958;51.232;6.826;2023-02-03T07:30:32;9.90;99.90
37050;DHT22;22958;51.232;6.826;2023-02-03T07:32:58;9.80;99.90
37050;DHT22;22958;51.232;6.826;2023-02-03T07:35:23;9.80;99.90
37050;DHT22;22958;51.232;6.826;2023-02-03T07:37:50;9.80;99.90
37050;DHT22;22958;51.232;6.826;2023-02-03T07:40:16;9.80;99.90
37050;DHT22;22958;51.232;6.826;2023-02-03T07:42:42;9.80;99.90
37050;DHT22;22958;51.232;6.826;2023-02-03T07:45:09;9.80;99.90
37050;DHT22;22958;51.232;6.826;2023-02-03T07:47:35;9.80;99.90
37050;DHT22;22958;51.232;6.826;2023-02-03T07:50:00;9.80;99.90
37050;DHT22;22958;51.232;6.826;2023-02-03T07:52:26;9.80;99.90
37050;DHT22;22958;51.232;6.826;2023-02-03T07:54:52;9.80;99.90
37050;DHT22;22958;51.232;6.826;2023-02-03T07:57:17;9.90;99.90
37050;DHT22;22958;51.232;6.826;2023-02-03T07:59:42;9.80;99.90
37050;DHT22;22958;51.232;6.826;2023-02-03T08:02:09;9.90;99.90
37050;DHT22;22958;51.232;6.826;2023-02-03T08:04:36;9.90;99.90
37050;DHT22;22958;51.232;6.826;2023-02-03T08:07:02;9.90;99.90
37050;DHT22;22958;51.232;6.826;2023-02-03T08:09:28;9.90;99.90
37050;DHT22;22958;51.232;6.826;2023-02-03T08:11:53;9.90;99.90
37050;DHT22;22958;51.232;6.826;2023-02-03T08:14:19;9.90;99.90
37050;DHT22;22958;51.232;6.826;2023-02-03T08:16:44;9.80;99.90
37050;DHT22;22958;51.232;6.826;2023-02-03T08:19:10;9.80;99.90
37050;DHT22;22958;51.232;6.826;2023-02-03T08:21:36;9.90;99.90
37050;DHT22;22958;51.232;6.826;2023-02-03T08:24:02;9.90;99.90
37050;DHT22;22958;51.232;6.826;2023-02-03T08:26:27;9.90;99.90
37050;DHT22;22958;51.232;6.826;2023-02-03T08:28:53;9.80;99.90
37050;DHT22;22958;51.232;6.826;2023-02-03T08:31:18;9.80;99.90
37050;DHT22;22958;51.232;6.826;2023-02-03T08:33:44;9.80;99.90
37050;DHT22;22958;51.232;6.826;2023-02-03T08:36:10;9.90;99.90
37050;DHT22;22958;51.232;6.826;2023-02-03T08:38:36;9.90;99.90
37050;DHT22;22958;51.232;6.826;2023-02-03T08:41:08;9.90;99.90
37050;DHT22;22958;51.232;6.826;2023-02-03T08:43:34;9.90;99.90
37050;DHT22;22958;51.232;6.826;2023-02-03T08:46:08;9.90;99.90
37050;DHT22;22958;51.232;6.826;2023-02-03T08:48:34;9.80;99.90
37050;DHT22;22958;51.232;6.826;2023-02-03T08:50:59;9.80;99.90
37050;DHT22;22958;51.232;6.826;2023-02-03T08:53:25;9.70;99.90
37050;DHT22;22958;51.232;6.826;2023-02-03T08:55:51;9.70;99.90
37050;DHT22;22958;51.232;6.826;2023-02-03T08:58:17;9.70;99.90
37050;DHT22;22958;51.232;6.826;2023-02-03T09:00:42;9.70;99.90
37050;DHT22;22958;51.232;6.826;2023-02-03T09:03:08;9.60;99.90
37050;DHT22;22958;51.232;6.826;2023-02-03T09:05:34;9.60;99.90
37050;DHT22;22958;51.232;6.826;2023-02-03T09:08:00;9.70;99.90
37050;DHT22;22958;51.232;6.826;2023-02-03T09:10:26;9.60;99.90
37050;DHT22;22958;51.232;6.826;2023-02-03T09:12:51;9.60;99.90
37050;DHT22;22958;51.232;6.826;2023-02-03T09:15:17;9.50;99.90
37050;DHT22;22958;51.232;6.826;2023-02-03T09:17:42;9.60;99.90
37050;DHT22;22958;51.232;6.826;2023-02-03T09:20:08;9.50;99.90
37050;DHT22;22958;51.232;6.826;2023-02-03T09:22:34;9.50;99.90
37050;DHT22;22958;51.232;6.826;2023-02-03T09:25:00;9.50;99.90
37050;DHT22;22958;51.232;6.826;2023-02-03T09:27:25;9.50;99.90
37050;DHT22;22958;51.232;6.826;2023-02-03T09:29:51;9.40;99.90
37050;DHT22;22958;51.232;6.826;2023-02-03T09:32:16;9.40;99.90
37050;DHT22;22958;51.232;6.826;2023-02-03T09:34:42;9.40;99.90
37050;DHT22;22958;51.232;6.826;2023-02-03T09:37:08;9.40;99.90
37050;DHT22;22958;51.232;6.826;2023-02-03T09:39:33;9.40;99.90
37050;DHT22;22958;51.232;6.826;2023-02-03T09:45:20;9.40;99.90
37050;DHT22;22958;51.232;6.826;2023-02-03T09:47:48;9.40;99.90
37050;DHT22;22958;51.232;6.826;2023-02-03T09:50:24;9.50;99.90
37050;DHT22;22958;51.232;6.826;2023-02-03T09:52:51;9.50;99.90
37050;DHT22;22958;51.232;6.826;2023-02-03T09:55:32;9.40;99.90
37050;DHT22;22958;51.232;6.826;2023-02-03T09:58:13;9.40;99.90
37050;DHT22;22958;51.232;6.826;2023-02-03T10:03:30;9.30;99.90
37050;DHT22;22958;51.232;6.826;2023-02-03T10:08:55;9.40;99.90
37050;DHT22;22958;51.232;6.826;2023-02-03T10:14:46;9.40;99.90
37050;DHT22;22958;51.232;6.826;2023-02-03T10:17:29;9.30;99.90
37050;DHT22;22958;51.232;6.826;2023-02-03T10:22:26;9.40;99.90
37050;DHT22;22958;51.232;6.826;2023-02-03T10:27:28;9.40;99.90
37050;DHT22;22958;51.232;6.826;2023-02-03T10:30:22;9.40;99.90
37050;DHT22;22958;51.232;6.826;2023-02-03T10:32:50;9.40;99.90
37050;DHT22;22958;51.232;6.826;2023-02-03T10:35:17;9.40;99.90
37050;DHT22;22958;51.232;6.826;2023-02-03T10:37:49;9.50;99.90
37050;DHT22;22958;51.232;6.826;2023-02-03T10:40:16;9.40;99.90
37050;DHT22;22958;51.232;6.826;2023-02-03T10:42:43;9.50;99.90
37050;DHT22;22958;51.232;6.826;2023-02-03T10:45:35;9.40;99.90
37050;DHT22;22958;51.232;6.826;2023-02-03T10:48:03;9.50;99.90
37050;DHT22;22958;51.232;6.826;2023-02-03T10:50:31;9.50;99.90
37050;DHT22;22958;51.232;6.826;2023-02-03T10:56:15;9.50;99.90
37050;DHT22;22958;51.232;6.826;2023-02-03T10:58:53;9.60;99.90
37050;DHT22;22958;51.232;6.826;2023-02-03T11:04:05;9.70;99.90
37050;DHT22;22958;51.232;6.826;2023-02-03T11:06:33;9.60;99.90
37050;DHT22;22958;51.232;6.826;2023-02-03T11:08:59;9.60;99.90
37050;DHT22;22958;51.232;6.826;2023-02-03T11:11:29;9.60;99.90
37050;DHT22;22958;51.232;6.826;2023-02-03T11:16:29;9.70;99.90
37050;DHT22;22958;51.232;6.826;2023-02-03T11:18:58;9.70;99.90
37050;DHT22;22958;51.232;6.826;2023-02-03T11:21:31;9.70;99.90
37050;DHT22;22958;51.232;6.826;2023-02-03T11:29:23;9.90;99.90
37050;DHT22;22958;51.232;6.826;2023-02-03T11:31:51;9.70;99.90
37050;DHT22;22958;51.232;6.826;2023-02-03T11:34:37;9.80;99.90
37050;DHT22;22958;51.232;6.826;2023-02-03T12:01:45;9.90;99.90
37050;DHT22;22958;51.232;6.826;2023-02-03T12:04:39;9.80;99.90
37050;DHT22;22958;51.232;6.826;2023-02-03T12:07:34;9.90;99.90
37050;DHT22;22958;51.232;6.826;2023-02-03T12:10:22;9.90;99.90
37050;DHT22;22958;51.232;6.826;2023-02-03T12:15:56;9.90;99.90
37050;DHT22;22958;51.232;6.826;2023-02-03T12:21:48;9.90;99.90
37050;DHT22;22958;51.232;6.826;2023-02-03T12:24:33;9.90;99.90
37050;DHT22;22958;51.232;6.826;2023-02-03T12:29:40;9.90;99.90
37050;DHT22;22958;51.232;6.826;2023-02-03T12:32:32;9.90;99.90
37050;DHT22;22958;51.232;6.826;2023-02-03T12:35:17;9.90;99.90
37050;DHT22;22958;51.232;6.826;2023-02-03T12:37:49;9.90;99.90
37050;DHT22;22958;51.232;6.826;2023-02-03T12:40:47;10.00;99.90
37050;DHT22;22958;51.232;6.826;2023-02-03T12:43:43;10.10;99.90
37050;DHT22;22958;51.232;6.826;2023-02-03T12:46:17;10.10;99.90
37050;DHT22;22958;51.232;6.826;2023-02-03T12:48:52;10.10;99.90
37050;DHT22;22958;51.232;6.826;2023-02-03T12:51:52;10.00;99.90
37050;DHT22;22958;51.232;6.826;2023-02-03T12:54:46;10.10;99.90
37050;DHT22;22958;51.232;6.826;2023-02-03T12:57:26;10.10;99.90
37050;DHT22;22958;51.232;6.826;2023-02-03T13:00:15;10.20;99.90
37050;DHT22;22958;51.232;6.826;2023-02-03T13:03:05;10.20;99.90
37050;DHT22;22958;51.232;6.826;2023-02-03T13:11:25;10.40;99.90
37050;DHT22;22958;51.232;6.826;2023-02-03T13:14:08;10.40;99.90
37050;DHT22;22958;51.232;6.826;2023-02-03T13:16:38;10.40;99.90
37050;DHT22;22958;51.232;6.826;2023-02-03T13:19:12;10.50;99.90
37050;DHT22;22958;51.232;6.826;2023-02-03T13:21:39;10.50;99.90
37050;DHT22;22958;51.232;6.826;2023-02-03T13:24:06;10.50;99.90
37050;DHT22;22958;51.232;6.826;2023-02-03T13:29:48;10.60;99.90
37050;DHT22;22958;51.232;6.826;2023-02-03T13:32:37;10.60;99.90
37050;DHT22;22958;51.232;6.826;2023-02-03T13:35:31;10.60;99.90
37050;DHT22;22958;51.232;6.826;2023-02-03T13:38:23;10.70;99.90
37050;DHT22;22958;51.232;6.826;2023-02-03T13:43:49;10.70;99.90
37050;DHT22;22958;51.232;6.826;2023-02-03T13:48:46;10.70;99.90
37050;DHT22;22958;51.232;6.826;2023-02-03T13:51:19;10.70;99.90
37050;DHT22;22958;51.232;6.826;2023-02-03T13:53:46;10.60;99.90
37050;DHT22;22958;51.232;6.826;2023-02-03T13:56:22;10.70;99.90
37050;DHT22;22958;51.232;6.826;2023-02-03T13:59:00;10.70;99.90
37050;DHT22;22958;51.232;6.826;2023-02-03T14:01:30;10.70;99.90
37050;DHT22;22958;51.232;6.826;2023-02-03T14:03:58;10.70;99.90
37050;DHT22;22958;51.232;6.826;2023-02-03T14:12:21;10.60;99.90
37050;DHT22;22958;51.232;6.826;2023-02-03T14:14:58;10.60;99.90
37050;DHT22;22958;51.232;6.826;2023-02-03T14:20:02;10.50;99.90
37050;DHT22;22958;51.232;6.826;2023-02-03T14:22:28;10.50;99.90
37050;DHT22;22958;51.232;6.826;2023-02-03T14:24:55;10.50;99.90
37050;DHT22;22958;51.232;6.826;2023-02-03T14:27:25;10.50;99.90
37050;DHT22;22958;51.232;6.826;2023-02-03T14:30:07;10.50;99.90
37050;DHT22;22958;51.232;6.826;2023-02-03T14:32:48;10.50;99.90
37050;DHT22;22958;51.232;6.826;2023-02-03T14:35:17;10.50;99.90
37050;DHT22;22958;51.232;6.826;2023-02-03T14:37:52;10.50;99.90
37050;DHT22;22958;51.232;6.826;2023-02-03T14:40:39;10.50;99.90
37050;DHT22;22958;51.232;6.826;2023-02-03T14:51:57;10.50;99.90
37050;DHT22;22958;51.232;6.826;2023-02-03T14:57:37;10.50;99.90
37050;DHT22;22958;51.232;6.826;2023-02-03T15:02:34;10.50;99.90
37050;DHT22;22958;51.232;6.826;2023-02-03T15:10:21;10.20;99.90
37050;DHT22;22958;51.232;6.826;2023-02-03T15:12:51;10.00;99.90
37050;DHT22;22958;51.232;6.826;2023-02-03T15:17:46;9.70;99.90
37050;DHT22;22958;51.232;6.826;2023-02-03T15:22:55;9.40;99.90
37050;DHT22;22958;51.232;6.826;2023-02-03T15:25:22;9.20;99.90
37050;DHT22;22958;51.232;6.826;2023-02-03T15:27:50;9.20;99.90
37050;DHT22;22958;51.232;6.826;2023-02-03T15:30:27;9.20;99.90
37050;DHT22;22958;51.232;6.826;2023-02-03T15:33:14;9.20;99.90
37050;DHT22;22958;51.232;6.826;2023-02-03T15:35:43;9.20;99.90
37050;DHT22;22958;51.232;6.826;2023-02-03T15:38:16;9.30;99.90
37050;DHT22;22958;51.232;6.826;2023-02-03T15:40:47;9.30;99.90
37050;DHT22;22958;51.232;6.826;2023-02-03T15:43:52;9.30;99.90
37050;DHT22;22958;51.232;6.826;2023-02-03T15:46:17;9.30;99.90
37050;DHT22;22958;51.232;6.826;2023-02-03T15:48:51;9.40;99.90
37050;DHT22;22958;51.232;6.826;2023-02-03T15:51:25;9.40;99.90
37050;DHT22;22958;51.232;6.826;2023-02-03T15:54:10;9.40;99.90
37050;DHT22;22958;51.232;6.826;2023-02-03T15:56:39;9.40;99.90
37050;DHT22;22958;51.232;6.826;2023-02-03T15:59:18;9.40;99.90
37050;DHT22;22958;51.232;6.826;2023-02-03T16:01:45;9.40;99.90
37050;DHT22;22958;51.232;6.826;2023-02-03T16:04:11;9.40;99.90
37050;DHT22;22958;51.232;6.826;2023-02-03T16:06:37;9.40;99.90
37050;DHT22;22958;51.232;6.826;2023-02-03T16:09:06;9.40;99.90
37050;DHT22;22958;51.232;6.826;2023-02-03T16:11:49;9.40;99.90
37050;DHT22;22958;51.232;6.826;2023-02-03T16:14:31;9.40;99.90
37050;DHT22;22958;51.232;6.826;2023-02-03T16:16:57;9.40;99.90
37050;DHT22;22958;51.232;6.826;2023-02-03T16:19:23;9.40;99.90
37050;DHT22;22958;51.232;6.826;2023-02-03T16:21:53;9.40;99.90
37050;DHT22;22958;51.232;6.826;2023-02-03T16:35:53;9.40;99.90
37050;DHT22;22958;51.232;6.826;2023-02-03T16:38:46;9.40;99.90
37050;DHT22;22958;51.232;6.826;2023-02-03T16:41:31;9.40;99.90
37050;DHT22;22958;51.232;6.826;2023-02-03T16:44:15;9.40;99.90
37050;DHT22;22958;51.232;6.826;2023-02-03T16:46:59;9.40;99.90
37050;DHT22;22958;51.232;6.826;2023-02-03T16:49:43;9.40;99.90
37050;DHT22;22958;51.232;6.826;2023-02-03T16:52:27;9.40;99.90
37050;DHT22;22958;51.232;6.826;2023-02-03T16:54:53;9.40;99.90
37050;DHT22;22958;51.232;6.826;2023-02-03T16:57:19;9.50;99.90
37050;DHT22;22958;51.232;6.826;2023-02-03T16:59:44;9.50;99.90
37050;DHT22;22958;51.232;6.826;2023-02-03T17:02:10;9.50;99.90
37050;DHT22;22958;51.232;6.826;2023-02-03T17:04:35;9.50;99.90
37050;DHT22;22958;51.232;6.826;2023-02-03T17:07:01;9.50;99.90
37050;DHT22;22958;51.232;6.826;2023-02-03T17:09:29;9.50;99.90
37050;DHT22;22958;51.232;6.826;2023-02-03T17:11:59;9.50;99.90
37050;DHT22;22958;51.232;6.826;2023-02-03T17:14:25;9.40;99.90
37050;DHT22;22958;51.232;6.826;2023-02-03T17:16:51;9.40;99.90
37050;DHT22;22958;51.232;6.826;2023-02-03T17:19:17;9.50;99.90
37050;DHT22;22958;51.232;6.826;2023-02-03T17:21:42;9.50;99.90
37050;DHT22;22958;51.232;6.826;2023-02-03T17:24:08;9.50;99.90
37050;DHT22;22958;51.232;6.826;2023-02-03T17:26:33;9.50;99.90
37050;DHT22;22958;51.232;6.826;2023-02-03T17:28:59;9.50;99.90
37050;DHT22;22958;51.232;6.826;2023-02-03T17:31:28;9.50;99.90
37050;DHT22;22958;51.232;6.826;2023-02-03T17:33:54;9.50;99.90
37050;DHT22;22958;51.232;6.826;2023-02-03T17:36:20;9.50;99.90
37050;DHT22;22958;51.232;6.826;2023-02-03T17:38:53;9.50;99.90
37050;DHT22;22958;51.232;6.826;2023-02-03T17:41:22;9.50;99.90
37050;DHT22;22958;51.232;6.826;2023-02-03T17:43:48;9.50;99.90
37050;DHT22;22958;51.232;6.826;2023-02-03T17:46:22;9.50;99.90
37050;DHT22;22958;51.232;6.826;2023-02-03T17:48:49;9.50;99.90
37050;DHT22;22958;51.232;6.826;2023-02-03T17:51:17;9.50;99.90
37050;DHT22;22958;51.232;6.826;2023-02-03T17:53:43;9.50;99.90
37050;DHT22;22958;51.232;6.826;2023-02-03T17:56:11;9.50;99.90
37050;DHT22;22958;51.232;6.826;2023-02-03T17:58:37;9.50;99.90
37050;DHT22;22958;51.232;6.826;2023-02-03T18:01:10;9.50;99.90
37050;DHT22;22958;51.232;6.826;2023-02-03T18:03:47;9.50;99.90
37050;DHT22;22958;51.232;6.826;2023-02-03T18:06:14;9.50;99.90
37050;DHT22;22958;51.232;6.826;2023-02-03T18:08:39;9.50;99.90
37050;DHT22;22958;51.232;6.826;2023-02-03T18:11:05;9.40;99.90
37050;DHT22;22958;51.232;6.826;2023-02-03T18:13:34;9.50;99.90
37050;DHT22;22958;51.232;6.826;2023-02-03T18:16:01;9.40;99.90
37050;DHT22;22958;51.232;6.826;2023-02-03T18:18:28;9.40;99.90